sensor_id;sensor_type;location;lat;lon;timestamp;P1;durP1;ratioP1;P2;durP2;ratioP2
24897;SDS011;12957;49.434;8.684;2023-08-31T00:01:35;3.03;;;2.63;;
24897;SDS011;12957;49.434;8.684;2023-08-31T00:04:01;2.65;;;2.50;;
24897;SDS011;12957;49.434;8.684;2023-08-31T00:06:26;2.72;;;2.30;;
24897;SDS011;12957;49.434;8.684;2023-08-31T00:08:52;3.33;;;2.53;;
24897;SDS011;12957;49.434;8.684;2023-08-31T00:11:17;2.58;;;2.30;;
24897;SDS011;12957;49.434;8.684;2023-08-31T00:13:43;2.80;;;2.60;;
24897;SDS011;12957;49.434;8.684;2023-08-31T00:16:08;2.58;;;2.38;;
24897;SDS011;12957;49.434;8.684;2023-08-31T00:18:35;2.53;;;2.30;;
24897;SDS011;12957;49.434;8.684;2023-08-31T00:21:01;5.72;;;2.38;;
24897;SDS011;12957;49.434;8.684;2023-08-31T00:23:27;2.50;;;2.30;;
24897;SDS011;12957;49.434;8.684;2023-08-31T00:25:53;3.22;;;2.30;;
24897;SDS011;12957;49.434;8.684;2023-08-31T00:28:19;2.50;;;2.28;;
24897;SDS011;12957;49.434;8.684;2023-08-31T00:30:44;2.40;;;2.20;;
24897;SDS011;12957;49.434;8.684;2023-08-31T00:33:11;3.40;;;2.42;;
24897;SDS011;12957;49.434;8.684;2023-08-31T00:35:37;3.35;;;2.63;;
24897;SDS011;12957;49.434;8.684;2023-08-31T00:38:02;4.45;;;2.13;;
24897;SDS011;12957;49.434;8.684;2023-08-31T00:40:29;2.60;;;2.40;;
24897;SDS011;12957;49.434;8.684;2023-08-31T00:42:56;3.33;;;2.60;;
24897;SDS011;12957;49.434;8.684;2023-08-31T00:45:21;3.22;;;2.42;;
24897;SDS011;12957;49.434;8.684;2023-08-31T00:47:48;5.78;;;3.33;;
24897;SDS011;12957;49.434;8.684;2023-08-31T00:50:14;4.13;;;2.92;;
24897;SDS011;12957;49.434;8.684;2023-08-31T00:52:40;3.03;;;2.72;;
24897;SDS011;12957;49.434;8.684;2023-08-31T00:55:09;4.95;;;3.10;;
24897;SDS011;12957;49.434;8.684;2023-08-31T00:57:35;2.95;;;2.30;;
24897;SDS011;12957;49.434;8.684;2023-08-31T01:00:00;4.63;;;2.70;;
24897;SDS011;12957;49.434;8.684;2023-08-31T01:02:30;2.88;;;2.65;;
24897;SDS011;12957;49.434;8.684;2023-08-31T01:05:01;3.67;;;3.20;;
24897;SDS011;12957;49.434;8.684;2023-08-31T01:10:28;4.05;;;3.15;;
24897;SDS011;12957;49.434;8.684;2023-08-31T01:13:06;5.03;;;3.17;;
24897;SDS011;12957;49.434;8.684;2023-08-31T01:15:36;3.33;;;3.03;;
24897;SDS011;12957;49.434;8.684;2023-08-31T01:18:03;4.78;;;3.17;;
24897;SDS011;12957;49.434;8.684;2023-08-31T01:20:34;5.22;;;3.55;;
24897;SDS011;12957;49.434;8.684;2023-08-31T01:23:10;4.22;;;3.13;;
24897;SDS011;12957;49.434;8.684;2023-08-31T01:25:44;6.10;;;3.35;;
24897;SDS011;12957;49.434;8.684;2023-08-31T01:28:11;5.20;;;3.30;;
24897;SDS011;12957;49.434;8.684;2023-08-31T01:30:37;5.47;;;3.13;;
24897;SDS011;12957;49.434;8.684;2023-08-31T01:33:02;3.75;;;3.45;;
24897;SDS011;12957;49.434;8.684;2023-08-31T01:35:29;14.88;;;3.55;;
24897;SDS011;12957;49.434;8.684;2023-08-31T01:38:04;5.60;;;3.55;;
24897;SDS011;12957;49.434;8.684;2023-08-31T01:43:15;5.32;;;3.38;;
24897;SDS011;12957;49.434;8.684;2023-08-31T01:45:42;6.60;;;3.95;;
24897;SDS011;12957;49.434;8.684;2023-08-31T01:48:08;6.93;;;3.83;;
24897;SDS011;12957;49.434;8.684;2023-08-31T01:50:34;4.38;;;3.40;;
24897;SDS011;12957;49.434;8.684;2023-08-31T01:53:00;5.47;;;3.47;;
24897;SDS011;12957;49.434;8.684;2023-08-31T01:55:25;10.20;;;4.03;;
24897;SDS011;12957;49.434;8.684;2023-08-31T01:57:50;3.88;;;3.50;;
24897;SDS011;12957;49.434;8.684;2023-08-31T02:00:16;5.18;;;3.40;;
24897;SDS011;12957;49.434;8.684;2023-08-31T02:02:43;3.60;;;3.30;;
24897;SDS011;12957;49.434;8.684;2023-08-31T02:05:08;4.22;;;3.85;;
24897;SDS011;12957;49.434;8.684;2023-08-31T02:07:35;7.18;;;4.10;;
24897;SDS011;12957;49.434;8.684;2023-08-31T02:10:00;6.65;;;4.20;;
24897;SDS011;12957;49.434;8.684;2023-08-31T02:12:26;10.45;;;4.43;;
24897;SDS011;12957;49.434;8.684;2023-08-31T02:14:54;8.73;;;4.18;;
24897;SDS011;12957;49.434;8.684;2023-08-31T02:17:20;7.28;;;3.67;;
24897;SDS011;12957;49.434;8.684;2023-08-31T02:19:46;8.50;;;4.00;;
24897;SDS011;12957;49.434;8.684;2023-08-31T02:22:11;7.10;;;4.35;;
24897;SDS011;12957;49.434;8.684;2023-08-31T02:24:37;5.60;;;4.18;;
24897;SDS011;12957;49.434;8.684;2023-08-31T02:27:02;4.32;;;3.92;;
24897;SDS011;12957;49.434;8.684;2023-08-31T02:29:28;7.35;;;4.80;;
24897;SDS011;12957;49.434;8.684;2023-08-31T02:31:53;6.72;;;5.43;;
24897;SDS011;12957;49.434;8.684;2023-08-31T02:34:19;4.93;;;4.25;;
24897;SDS011;12957;49.434;8.684;2023-08-31T02:36:45;6.70;;;4.38;;
24897;SDS011;12957;49.434;8.684;2023-08-31T02:39:10;7.20;;;4.65;;
24897;SDS011;12957;49.434;8.684;2023-08-31T02:41:36;4.63;;;4.25;;
24897;SDS011;12957;49.434;8.684;2023-08-31T02:44:02;8.80;;;4.43;;
24897;SDS011;12957;49.434;8.684;2023-08-31T02:46:27;7.03;;;4.47;;
24897;SDS011;12957;49.434;8.684;2023-08-31T02:48:53;5.53;;;4.38;;
24897;SDS011;12957;49.434;8.684;2023-08-31T02:51:18;8.13;;;4.82;;
24897;SDS011;12957;49.434;8.684;2023-08-31T02:53:44;7.45;;;4.88;;
24897;SDS011;12957;49.434;8.684;2023-08-31T02:56:09;6.50;;;5.05;;
24897;SDS011;12957;49.434;8.684;2023-08-31T02:58:35;6.70;;;4.30;;
24897;SDS011;12957;49.434;8.684;2023-08-31T03:01:10;7.10;;;5.03;;
24897;SDS011;12957;49.434;8.684;2023-08-31T03:03:36;6.80;;;4.82;;
24897;SDS011;12957;49.434;8.684;2023-08-31T03:06:03;5.53;;;4.93;;
24897;SDS011;12957;49.434;8.684;2023-08-31T03:08:28;7.68;;;5.30;;
24897;SDS011;12957;49.434;8.684;2023-08-31T03:10:54;9.07;;;5.20;;
24897;SDS011;12957;49.434;8.684;2023-08-31T03:13:21;5.88;;;4.65;;
24897;SDS011;12957;49.434;8.684;2023-08-31T03:15:49;6.30;;;4.28;;
24897;SDS011;12957;49.434;8.684;2023-08-31T03:18:15;6.50;;;4.97;;
24897;SDS011;12957;49.434;8.684;2023-08-31T03:20:40;8.93;;;4.82;;
24897;SDS011;12957;49.434;8.684;2023-08-31T03:23:06;10.73;;;5.55;;
24897;SDS011;12957;49.434;8.684;2023-08-31T03:25:31;6.43;;;4.93;;
24897;SDS011;12957;49.434;8.684;2023-08-31T03:27:59;5.90;;;4.38;;
24897;SDS011;12957;49.434;8.684;2023-08-31T03:30:24;5.28;;;4.47;;
24897;SDS011;12957;49.434;8.684;2023-08-31T03:32:50;8.60;;;4.78;;
24897;SDS011;12957;49.434;8.684;2023-08-31T03:35:15;5.53;;;4.82;;
24897;SDS011;12957;49.434;8.684;2023-08-31T03:37:41;5.93;;;4.95;;
24897;SDS011;12957;49.434;8.684;2023-08-31T03:40:07;7.65;;;4.65;;
24897;SDS011;12957;49.434;8.684;2023-08-31T03:42:33;5.40;;;4.82;;
24897;SDS011;12957;49.434;8.684;2023-08-31T03:44:59;6.95;;;4.50;;
24897;SDS011;12957;49.434;8.684;2023-08-31T03:47:25;7.78;;;5.00;;
24897;SDS011;12957;49.434;8.684;2023-08-31T03:49:51;6.30;;;4.65;;
24897;SDS011;12957;49.434;8.684;2023-08-31T03:52:16;5.35;;;4.82;;
24897;SDS011;12957;49.434;8.684;2023-08-31T03:54:42;9.73;;;4.95;;
24897;SDS011;12957;49.434;8.684;2023-08-31T03:57:07;7.55;;;4.38;;
24897;SDS011;12957;49.434;8.684;2023-08-31T03:59:33;6.50;;;4.28;;
24897;SDS011;12957;49.434;8.684;2023-08-31T04:01:58;6.55;;;4.35;;
24897;SDS011;12957;49.434;8.684;2023-08-31T04:04:24;4.40;;;4.05;;
24897;SDS011;12957;49.434;8.684;2023-08-31T04:06:51;6.97;;;4.13;;
24897;SDS011;12957;49.434;8.684;2023-08-31T04:09:17;5.03;;;3.97;;
24897;SDS011;12957;49.434;8.684;2023-08-31T04:11:44;8.30;;;4.13;;
24897;SDS011;12957;49.434;8.684;2023-08-31T04:14:09;5.45;;;3.97;;
24897;SDS011;12957;49.434;8.684;2023-08-31T04:16:35;5.07;;;3.85;;
24897;SDS011;12957;49.434;8.684;2023-08-31T04:19:00;4.30;;;3.90;;
24897;SDS011;12957;49.434;8.684;2023-08-31T04:21:28;4.30;;;3.90;;
24897;SDS011;12957;49.434;8.684;2023-08-31T04:23:53;4.30;;;3.88;;
24897;SDS011;12957;49.434;8.684;2023-08-31T04:26:19;4.90;;;3.95;;
24897;SDS011;12957;49.434;8.684;2023-08-31T04:28:45;8.48;;;3.90;;
24897;SDS011;12957;49.434;8.684;2023-08-31T04:31:11;4.25;;;3.33;;
24897;SDS011;12957;49.434;8.684;2023-08-31T04:33:37;4.25;;;3.90;;
24897;SDS011;12957;49.434;8.684;2023-08-31T04:36:03;6.25;;;3.95;;
24897;SDS011;12957;49.434;8.684;2023-08-31T04:38:31;7.53;;;3.50;;
24897;SDS011;12957;49.434;8.684;2023-08-31T04:41:00;4.88;;;3.40;;
24897;SDS011;12957;49.434;8.684;2023-08-31T04:43:26;6.65;;;3.50;;
24897;SDS011;12957;49.434;8.684;2023-08-31T04:45:52;5.93;;;3.70;;
24897;SDS011;12957;49.434;8.684;2023-08-31T04:48:18;6.80;;;3.78;;
24897;SDS011;12957;49.434;8.684;2023-08-31T04:50:44;6.35;;;3.70;;
24897;SDS011;12957;49.434;8.684;2023-08-31T04:53:09;4.55;;;3.92;;
24897;SDS011;12957;49.434;8.684;2023-08-31T04:55:35;8.50;;;3.85;;
24897;SDS011;12957;49.434;8.684;2023-08-31T04:58:00;4.63;;;4.10;;
24897;SDS011;12957;49.434;8.684;2023-08-31T05:00:27;7.35;;;3.80;;
24897;SDS011;12957;49.434;8.684;2023-08-31T05:02:53;4.90;;;3.58;;
24897;SDS011;12957;49.434;8.684;2023-08-31T05:05:18;6.20;;;3.50;;
24897;SDS011;12957;49.434;8.684;2023-08-31T05:07:44;8.70;;;3.63;;
24897;SDS011;12957;49.434;8.684;2023-08-31T05:10:09;5.30;;;3.08;;
24897;SDS011;12957;49.434;8.684;2023-08-31T05:12:35;6.25;;;3.80;;
24897;SDS011;12957;49.434;8.684;2023-08-31T05:15:00;4.90;;;3.60;;
24897;SDS011;12957;49.434;8.684;2023-08-31T05:17:27;4.07;;;3.58;;
24897;SDS011;12957;49.434;8.684;2023-08-31T05:19:52;8.43;;;3.78;;
24897;SDS011;12957;49.434;8.684;2023-08-31T05:22:18;7.03;;;3.80;;
24897;SDS011;12957;49.434;8.684;2023-08-31T05:24:43;7.47;;;3.65;;
24897;SDS011;12957;49.434;8.684;2023-08-31T05:27:09;4.18;;;3.40;;
24897;SDS011;12957;49.434;8.684;2023-08-31T05:29:34;4.25;;;3.70;;
24897;SDS011;12957;49.434;8.684;2023-08-31T05:32:00;6.05;;;3.22;;
24897;SDS011;12957;49.434;8.684;2023-08-31T05:34:25;4.82;;;3.25;;
24897;SDS011;12957;49.434;8.684;2023-08-31T05:36:51;5.80;;;3.30;;
24897;SDS011;12957;49.434;8.684;2023-08-31T05:39:16;5.13;;;3.50;;
24897;SDS011;12957;49.434;8.684;2023-08-31T05:41:42;4.90;;;3.50;;
24897;SDS011;12957;49.434;8.684;2023-08-31T05:44:08;6.95;;;3.92;;
24897;SDS011;12957;49.434;8.684;2023-08-31T05:46:34;5.22;;;3.28;;
24897;SDS011;12957;49.434;8.684;2023-08-31T05:49:00;5.40;;;4.30;;
24897;SDS011;12957;49.434;8.684;2023-08-31T05:51:25;10.40;;;4.07;;
24897;SDS011;12957;49.434;8.684;2023-08-31T05:53:51;5.25;;;3.10;;
24897;SDS011;12957;49.434;8.684;2023-08-31T05:56:18;5.88;;;3.75;;
24897;SDS011;12957;49.434;8.684;2023-08-31T05:58:44;6.88;;;3.72;;
24897;SDS011;12957;49.434;8.684;2023-08-31T06:01:10;5.05;;;3.70;;
24897;SDS011;12957;49.434;8.684;2023-08-31T06:03:35;6.72;;;3.45;;
24897;SDS011;12957;49.434;8.684;2023-08-31T06:06:02;8.02;;;3.88;;
24897;SDS011;12957;49.434;8.684;2023-08-31T06:08:28;5.72;;;3.67;;
24897;SDS011;12957;49.434;8.684;2023-08-31T06:10:55;5.85;;;3.92;;
24897;SDS011;12957;49.434;8.684;2023-08-31T06:13:20;5.25;;;3.45;;
24897;SDS011;12957;49.434;8.684;2023-08-31T06:15:46;4.60;;;3.67;;
24897;SDS011;12957;49.434;8.684;2023-08-31T06:18:11;8.98;;;3.30;;
24897;SDS011;12957;49.434;8.684;2023-08-31T06:20:37;8.10;;;3.50;;
24897;SDS011;12957;49.434;8.684;2023-08-31T06:23:02;10.25;;;4.70;;
24897;SDS011;12957;49.434;8.684;2023-08-31T06:25:29;7.38;;;3.80;;
24897;SDS011;12957;49.434;8.684;2023-08-31T06:27:54;5.63;;;3.38;;
24897;SDS011;12957;49.434;8.684;2023-08-31T06:30:20;6.68;;;3.88;;
24897;SDS011;12957;49.434;8.684;2023-08-31T06:32:45;5.80;;;3.50;;
24897;SDS011;12957;49.434;8.684;2023-08-31T06:35:11;10.77;;;3.70;;
24897;SDS011;12957;49.434;8.684;2023-08-31T06:37:38;7.53;;;3.92;;
24897;SDS011;12957;49.434;8.684;2023-08-31T06:40:04;5.82;;;3.58;;
24897;SDS011;12957;49.434;8.684;2023-08-31T06:42:36;9.43;;;3.75;;
24897;SDS011;12957;49.434;8.684;2023-08-31T06:45:05;6.75;;;3.50;;
24897;SDS011;12957;49.434;8.684;2023-08-31T06:47:31;4.65;;;3.55;;
24897;SDS011;12957;49.434;8.684;2023-08-31T06:49:58;7.80;;;3.90;;
24897;SDS011;12957;49.434;8.684;2023-08-31T06:52:24;6.85;;;3.33;;
24897;SDS011;12957;49.434;8.684;2023-08-31T06:54:50;8.15;;;3.53;;
24897;SDS011;12957;49.434;8.684;2023-08-31T06:57:20;5.43;;;3.20;;
24897;SDS011;12957;49.434;8.684;2023-08-31T06:59:45;7.00;;;3.15;;
24897;SDS011;12957;49.434;8.684;2023-08-31T07:02:12;7.82;;;3.22;;
24897;SDS011;12957;49.434;8.684;2023-08-31T07:04:37;3.65;;;2.60;;
24897;SDS011;12957;49.434;8.684;2023-08-31T07:07:03;5.03;;;2.65;;
24897;SDS011;12957;49.434;8.684;2023-08-31T07:09:30;3.60;;;2.80;;
24897;SDS011;12957;49.434;8.684;2023-08-31T07:11:55;4.68;;;2.65;;
24897;SDS011;12957;49.434;8.684;2023-08-31T07:14:21;4.43;;;2.58;;
24897;SDS011;12957;49.434;8.684;2023-08-31T07:16:48;5.75;;;2.70;;
24897;SDS011;12957;49.434;8.684;2023-08-31T07:19:13;3.42;;;2.75;;
24897;SDS011;12957;49.434;8.684;2023-08-31T07:21:39;6.85;;;2.47;;
24897;SDS011;12957;49.434;8.684;2023-08-31T07:24:05;3.13;;;2.17;;
24897;SDS011;12957;49.434;8.684;2023-08-31T07:26:30;4.15;;;2.50;;
24897;SDS011;12957;49.434;8.684;2023-08-31T07:28:55;4.30;;;2.50;;
24897;SDS011;12957;49.434;8.684;2023-08-31T07:31:21;8.82;;;2.38;;
24897;SDS011;12957;49.434;8.684;2023-08-31T07:33:48;7.03;;;2.42;;
24897;SDS011;12957;49.434;8.684;2023-08-31T07:36:14;7.53;;;2.60;;
24897;SDS011;12957;49.434;8.684;2023-08-31T07:38:40;2.63;;;2.17;;
24897;SDS011;12957;49.434;8.684;2023-08-31T07:41:06;3.33;;;2.47;;
24897;SDS011;12957;49.434;8.684;2023-08-31T07:43:31;3.30;;;2.30;;
24897;SDS011;12957;49.434;8.684;2023-08-31T07:45:57;5.40;;;2.40;;
24897;SDS011;12957;49.434;8.684;2023-08-31T07:48:24;3.88;;;2.10;;
24897;SDS011;12957;49.434;8.684;2023-08-31T07:50:49;4.03;;;2.55;;
24897;SDS011;12957;49.434;8.684;2023-08-31T07:53:15;4.10;;;2.55;;
24897;SDS011;12957;49.434;8.684;2023-08-31T07:55:50;8.77;;;2.80;;
24897;SDS011;12957;49.434;8.684;2023-08-31T07:58:16;3.45;;;2.42;;
24897;SDS011;12957;49.434;8.684;2023-08-31T08:00:44;6.00;;;2.50;;
24897;SDS011;12957;49.434;8.684;2023-08-31T08:03:09;3.60;;;2.35;;
24897;SDS011;12957;49.434;8.684;2023-08-31T08:05:36;5.55;;;2.35;;
24897;SDS011;12957;49.434;8.684;2023-08-31T08:08:02;6.57;;;2.45;;
24897;SDS011;12957;49.434;8.684;2023-08-31T08:10:28;5.05;;;2.42;;
24897;SDS011;12957;49.434;8.684;2023-08-31T08:12:57;4.40;;;2.10;;
24897;SDS011;12957;49.434;8.684;2023-08-31T08:15:23;4.95;;;2.10;;
24897;SDS011;12957;49.434;8.684;2023-08-31T08:17:49;6.25;;;2.15;;
24897;SDS011;12957;49.434;8.684;2023-08-31T08:20:14;4.35;;;1.98;;
24897;SDS011;12957;49.434;8.684;2023-08-31T08:22:40;3.25;;;1.80;;
24897;SDS011;12957;49.434;8.684;2023-08-31T08:25:05;6.55;;;2.17;;
24897;SDS011;12957;49.434;8.684;2023-08-31T08:27:33;5.28;;;2.03;;
24897;SDS011;12957;49.434;8.684;2023-08-31T08:30:01;6.50;;;2.15;;
24897;SDS011;12957;49.434;8.684;2023-08-31T08:32:27;3.72;;;1.83;;
24897;SDS011;12957;49.434;8.684;2023-08-31T08:34:53;5.93;;;1.85;;
24897;SDS011;12957;49.434;8.684;2023-08-31T08:37:20;5.22;;;2.40;;
24897;SDS011;12957;49.434;8.684;2023-08-31T08:39:49;3.92;;;1.75;;
24897;SDS011;12957;49.434;8.684;2023-08-31T08:42:15;8.07;;;2.03;;
24897;SDS011;12957;49.434;8.684;2023-08-31T08:44:42;7.20;;;1.67;;
24897;SDS011;12957;49.434;8.684;2023-08-31T08:47:08;3.03;;;1.63;;
24897;SDS011;12957;49.434;8.684;2023-08-31T08:49:35;4.65;;;1.90;;
24897;SDS011;12957;49.434;8.684;2023-08-31T08:52:01;5.13;;;2.10;;
24897;SDS011;12957;49.434;8.684;2023-08-31T08:54:27;8.57;;;2.30;;
24897;SDS011;12957;49.434;8.684;2023-08-31T08:56:53;3.17;;;1.98;;
24897;SDS011;12957;49.434;8.684;2023-08-31T08:59:19;4.43;;;2.00;;
24897;SDS011;12957;49.434;8.684;2023-08-31T09:01:45;5.68;;;2.10;;
24897;SDS011;12957;49.434;8.684;2023-08-31T09:04:11;5.13;;;1.80;;
24897;SDS011;12957;49.434;8.684;2023-08-31T09:06:36;9.27;;;2.20;;
24897;SDS011;12957;49.434;8.684;2023-08-31T09:09:02;2.72;;;1.85;;
24897;SDS011;12957;49.434;8.684;2023-08-31T09:11:28;2.97;;;1.80;;
24897;SDS011;12957;49.434;8.684;2023-08-31T09:13:54;4.07;;;1.90;;
24897;SDS011;12957;49.434;8.684;2023-08-31T09:16:27;4.57;;;2.00;;
24897;SDS011;12957;49.434;8.684;2023-08-31T09:18:54;4.15;;;1.90;;
24897;SDS011;12957;49.434;8.684;2023-08-31T09:21:20;4.47;;;1.90;;
24897;SDS011;12957;49.434;8.684;2023-08-31T09:23:58;2.28;;;1.77;;
24897;SDS011;12957;49.434;8.684;2023-08-31T09:26:24;4.10;;;1.77;;
24897;SDS011;12957;49.434;8.684;2023-08-31T09:28:49;6.50;;;1.83;;
24897;SDS011;12957;49.434;8.684;2023-08-31T09:31:15;4.25;;;1.70;;
24897;SDS011;12957;49.434;8.684;2023-08-31T09:33:49;3.05;;;1.83;;
24897;SDS011;12957;49.434;8.684;2023-08-31T09:36:15;3.83;;;1.63;;
24897;SDS011;12957;49.434;8.684;2023-08-31T09:38:44;2.30;;;1.63;;
24897;SDS011;12957;49.434;8.684;2023-08-31T09:41:10;3.75;;;1.70;;
24897;SDS011;12957;49.434;8.684;2023-08-31T09:43:35;2.92;;;1.77;;
24897;SDS011;12957;49.434;8.684;2023-08-31T09:46:02;4.65;;;1.42;;
24897;SDS011;12957;49.434;8.684;2023-08-31T09:48:28;4.57;;;1.85;;
24897;SDS011;12957;49.434;8.684;2023-08-31T09:50:54;2.28;;;1.50;;
24897;SDS011;12957;49.434;8.684;2023-08-31T09:53:20;6.28;;;1.77;;
24897;SDS011;12957;49.434;8.684;2023-08-31T09:55:46;1.70;;;1.50;;
24897;SDS011;12957;49.434;8.684;2023-08-31T09:58:12;4.10;;;1.60;;
24897;SDS011;12957;49.434;8.684;2023-08-31T10:00:42;3.38;;;1.73;;
24897;SDS011;12957;49.434;8.684;2023-08-31T10:03:09;2.47;;;1.60;;
24897;SDS011;12957;49.434;8.684;2023-08-31T10:05:39;2.83;;;2.00;;
24897;SDS011;12957;49.434;8.684;2023-08-31T10:08:06;2.20;;;1.70;;
24897;SDS011;12957;49.434;8.684;2023-08-31T10:10:32;2.28;;;1.60;;
24897;SDS011;12957;49.434;8.684;2023-08-31T10:12:58;2.40;;;1.50;;
24897;SDS011;12957;49.434;8.684;2023-08-31T10:15:24;4.00;;;1.80;;
24897;SDS011;12957;49.434;8.684;2023-08-31T10:17:51;4.10;;;1.83;;
24897;SDS011;12957;49.434;8.684;2023-08-31T10:20:18;3.03;;;1.92;;
24897;SDS011;12957;49.434;8.684;2023-08-31T10:22:44;2.33;;;1.60;;
24897;SDS011;12957;49.434;8.684;2023-08-31T10:25:12;3.78;;;1.98;;
24897;SDS011;12957;49.434;8.684;2023-08-31T10:35:48;4.10;;;1.98;;
24897;SDS011;12957;49.434;8.684;2023-08-31T10:38:24;2.30;;;1.50;;
24897;SDS011;12957;49.434;8.684;2023-08-31T10:41:03;3.40;;;1.85;;
24897;SDS011;12957;49.434;8.684;2023-08-31T10:46:20;4.60;;;1.63;;
24897;SDS011;12957;49.434;8.684;2023-08-31T10:51:40;5.22;;;1.50;;
24897;SDS011;12957;49.434;8.684;2023-08-31T11:02:07;2.72;;;1.50;;
24897;SDS011;12957;49.434;8.684;2023-08-31T11:04:52;2.47;;;1.48;;
24897;SDS011;12957;49.434;8.684;2023-08-31T11:07:19;4.43;;;1.60;;
24897;SDS011;12957;49.434;8.684;2023-08-31T11:09:45;3.33;;;1.73;;
24897;SDS011;12957;49.434;8.684;2023-08-31T11:12:11;1.50;;;1.40;;
24897;SDS011;12957;49.434;8.684;2023-08-31T11:14:37;4.20;;;1.60;;
24897;SDS011;12957;49.434;8.684;2023-08-31T11:17:03;2.95;;;1.95;;
24897;SDS011;12957;49.434;8.684;2023-08-31T11:19:30;2.85;;;1.85;;
24897;SDS011;12957;49.434;8.684;2023-08-31T11:22:08;4.00;;;1.75;;
24897;SDS011;12957;49.434;8.684;2023-08-31T11:25:15;5.70;;;1.70;;
24897;SDS011;12957;49.434;8.684;2023-08-31T11:27:41;3.15;;;1.85;;
24897;SDS011;12957;49.434;8.684;2023-08-31T11:30:17;4.50;;;1.77;;
24897;SDS011;12957;49.434;8.684;2023-08-31T11:32:54;3.10;;;1.70;;
24897;SDS011;12957;49.434;8.684;2023-08-31T11:35:38;5.32;;;1.85;;
24897;SDS011;12957;49.434;8.684;2023-08-31T11:38:07;3.08;;;1.73;;
24897;SDS011;12957;49.434;8.684;2023-08-31T11:40:35;3.72;;;1.67;;
24897;SDS011;12957;49.434;8.684;2023-08-31T11:43:01;2.17;;;1.65;;
24897;SDS011;12957;49.434;8.684;2023-08-31T11:45:31;4.18;;;1.83;;
24897;SDS011;12957;49.434;8.684;2023-08-31T11:47:57;5.43;;;1.90;;
24897;SDS011;12957;49.434;8.684;2023-08-31T11:50:23;4.47;;;1.83;;
24897;SDS011;12957;49.434;8.684;2023-08-31T11:52:49;4.75;;;1.90;;
24897;SDS011;12957;49.434;8.684;2023-08-31T11:55:17;5.60;;;1.98;;
24897;SDS011;12957;49.434;8.684;2023-08-31T11:57:53;3.58;;;1.88;;
24897;SDS011;12957;49.434;8.684;2023-08-31T12:00:22;5.82;;;2.25;;
24897;SDS011;12957;49.434;8.684;2023-08-31T12:03:00;2.67;;;1.73;;
24897;SDS011;12957;49.434;8.684;2023-08-31T12:05:26;3.70;;;1.70;;
24897;SDS011;12957;49.434;8.684;2023-08-31T12:07:55;5.35;;;2.03;;
24897;SDS011;12957;49.434;8.684;2023-08-31T12:10:21;12.73;;;1.63;;
24897;SDS011;12957;49.434;8.684;2023-08-31T12:12:46;4.88;;;1.88;;
24897;SDS011;12957;49.434;8.684;2023-08-31T12:15:12;2.97;;;2.03;;
24897;SDS011;12957;49.434;8.684;2023-08-31T12:17:37;3.75;;;1.92;;
24897;SDS011;12957;49.434;8.684;2023-08-31T12:20:04;6.45;;;2.20;;
24897;SDS011;12957;49.434;8.684;2023-08-31T12:22:34;4.90;;;1.80;;
24897;SDS011;12957;49.434;8.684;2023-08-31T12:25:00;6.72;;;2.45;;
24897;SDS011;12957;49.434;8.684;2023-08-31T12:27:25;4.68;;;1.90;;
24897;SDS011;12957;49.434;8.684;2023-08-31T12:29:51;4.95;;;2.10;;
24897;SDS011;12957;49.434;8.684;2023-08-31T12:32:17;3.70;;;1.83;;
24897;SDS011;12957;49.434;8.684;2023-08-31T12:34:43;4.32;;;1.67;;
24897;SDS011;12957;49.434;8.684;2023-08-31T12:37:09;2.50;;;1.67;;
24897;SDS011;12957;49.434;8.684;2023-08-31T12:39:37;2.53;;;1.88;;
24897;SDS011;12957;49.434;8.684;2023-08-31T12:42:03;8.02;;;2.10;;
24897;SDS011;12957;49.434;8.684;2023-08-31T12:44:29;4.07;;;2.03;;
24897;SDS011;12957;49.434;8.684;2023-08-31T12:46:55;6.78;;;2.05;;
24897;SDS011;12957;49.434;8.684;2023-08-31T12:49:20;4.70;;;1.95;;
24897;SDS011;12957;49.434;8.684;2023-08-31T12:51:46;5.40;;;2.08;;
24897;SDS011;12957;49.434;8.684;2023-08-31T12:54:12;4.15;;;2.00;;
24897;SDS011;12957;49.434;8.684;2023-08-31T12:56:37;5.30;;;2.08;;
24897;SDS011;12957;49.434;8.684;2023-08-31T12:59:03;12.10;;;2.20;;
24897;SDS011;12957;49.434;8.684;2023-08-31T13:01:30;5.07;;;2.20;;
24897;SDS011;12957;49.434;8.684;2023-08-31T13:03:57;4.30;;;1.92;;
24897;SDS011;12957;49.434;8.684;2023-08-31T13:06:23;4.72;;;1.92;;
24897;SDS011;12957;49.434;8.684;2023-08-31T13:08:50;3.35;;;1.85;;
24897;SDS011;12957;49.434;8.684;2023-08-31T13:11:16;8.18;;;2.38;;
24897;SDS011;12957;49.434;8.684;2023-08-31T13:13:48;5.03;;;1.98;;
24897;SDS011;12957;49.434;8.684;2023-08-31T13:16:13;3.72;;;2.15;;
24897;SDS011;12957;49.434;8.684;2023-08-31T13:18:39;4.05;;;1.90;;
24897;SDS011;12957;49.434;8.684;2023-08-31T13:21:04;5.65;;;2.25;;
24897;SDS011;12957;49.434;8.684;2023-08-31T13:23:30;8.02;;;2.05;;
24897;SDS011;12957;49.434;8.684;2023-08-31T13:25:55;4.78;;;2.00;;
24897;SDS011;12957;49.434;8.684;2023-08-31T13:28:21;5.40;;;1.92;;
24897;SDS011;12957;49.434;8.684;2023-08-31T13:30:46;9.45;;;2.33;;
24897;SDS011;12957;49.434;8.684;2023-08-31T13:33:12;3.30;;;1.85;;
24897;SDS011;12957;49.434;8.684;2023-08-31T13:35:38;5.88;;;2.08;;
24897;SDS011;12957;49.434;8.684;2023-08-31T13:38:03;5.68;;;3.03;;
24897;SDS011;12957;49.434;8.684;2023-08-31T13:40:29;2.38;;;1.70;;
24897;SDS011;12957;49.434;8.684;2023-08-31T13:42:56;4.68;;;2.10;;
24897;SDS011;12957;49.434;8.684;2023-08-31T13:45:24;5.65;;;2.00;;
24897;SDS011;12957;49.434;8.684;2023-08-31T13:47:50;4.25;;;2.17;;
24897;SDS011;12957;49.434;8.684;2023-08-31T13:50:16;10.07;;;2.47;;
24897;SDS011;12957;49.434;8.684;2023-08-31T13:52:41;7.38;;;1.85;;
24897;SDS011;12957;49.434;8.684;2023-08-31T13:55:07;5.90;;;1.98;;
24897;SDS011;12957;49.434;8.684;2023-08-31T13:57:32;3.63;;;2.03;;
24897;SDS011;12957;49.434;8.684;2023-08-31T13:59:58;5.18;;;2.10;;
24897;SDS011;12957;49.434;8.684;2023-08-31T14:02:24;6.47;;;2.72;;
24897;SDS011;12957;49.434;8.684;2023-08-31T14:04:50;4.80;;;1.98;;
24897;SDS011;12957;49.434;8.684;2023-08-31T14:07:15;3.28;;;1.90;;
24897;SDS011;12957;49.434;8.684;2023-08-31T14:09:41;12.15;;;2.30;;
24897;SDS011;12957;49.434;8.684;2023-08-31T14:12:06;4.03;;;1.73;;
24897;SDS011;12957;49.434;8.684;2023-08-31T14:14:32;3.60;;;1.90;;
24897;SDS011;12957;49.434;8.684;2023-08-31T14:16:57;4.05;;;1.88;;
24897;SDS011;12957;49.434;8.684;2023-08-31T14:19:23;4.30;;;2.28;;
24897;SDS011;12957;49.434;8.684;2023-08-31T14:21:48;5.00;;;2.03;;
24897;SDS011;12957;49.434;8.684;2023-08-31T14:24:14;5.75;;;2.22;;
24897;SDS011;12957;49.434;8.684;2023-08-31T14:26:39;7.85;;;2.40;;
24897;SDS011;12957;49.434;8.684;2023-08-31T14:29:05;6.20;;;2.00;;
24897;SDS011;12957;49.434;8.684;2023-08-31T14:31:30;5.38;;;1.98;;
24897;SDS011;12957;49.434;8.684;2023-08-31T14:33:56;6.43;;;2.33;;
24897;SDS011;12957;49.434;8.684;2023-08-31T14:36:21;9.43;;;2.38;;
24897;SDS011;12957;49.434;8.684;2023-08-31T14:38:47;4.78;;;2.15;;
24897;SDS011;12957;49.434;8.684;2023-08-31T14:41:15;4.20;;;2.00;;
24897;SDS011;12957;49.434;8.684;2023-08-31T14:43:40;3.70;;;1.92;;
24897;SDS011;12957;49.434;8.684;2023-08-31T14:46:06;4.70;;;2.25;;
24897;SDS011;12957;49.434;8.684;2023-08-31T14:48:35;7.95;;;2.70;;
24897;SDS011;12957;49.434;8.684;2023-08-31T14:51:00;4.13;;;2.20;;
24897;SDS011;12957;49.434;8.684;2023-08-31T14:53:26;7.00;;;2.42;;
24897;SDS011;12957;49.434;8.684;2023-08-31T14:55:52;7.50;;;2.50;;
24897;SDS011;12957;49.434;8.684;2023-08-31T14:58:18;4.75;;;2.50;;
24897;SDS011;12957;49.434;8.684;2023-08-31T15:00:43;8.45;;;2.05;;
24897;SDS011;12957;49.434;8.684;2023-08-31T15:03:09;7.88;;;2.28;;
24897;SDS011;12957;49.434;8.684;2023-08-31T15:05:35;7.60;;;2.35;;
24897;SDS011;12957;49.434;8.684;2023-08-31T15:08:01;5.90;;;2.00;;
24897;SDS011;12957;49.434;8.684;2023-08-31T15:10:29;4.22;;;1.98;;
24897;SDS011;12957;49.434;8.684;2023-08-31T15:12:54;4.97;;;1.90;;